Time;durP1;ratioP1;P1;durP2;ratioP2;P2;SDS_P1;SDS_P2;PMS_P1;PMS_P2;Temp;Humidity;BMP_temperature;BMP_pressure;BME280_temperature;BME280_humidity;BME280_pressure;Samples;Min_cycle;Max_cycle;Signal;HPM_P1;HPM_P2
2023/11/09 00:02:06;;;;;;;4.30;1.67;;;;;;;4.63;87.76;100571.53;5015082;28;20234;-70
2023/11/09 00:04:33;;;;;;;1.97;1.47;;;;;;;4.61;88.68;100563.22;5014524;28;20254;-69
2023/11/09 00:07:00;;;;;;;3.67;2.20;;;;;;;4.58;88.53;100564.56;5015773;28;20206;-69
2023/11/09 00:09:26;;;;;;;5.80;1.80;;;;;;;4.57;88.68;100560.38;5012875;28;20204;-72
2023/11/09 00:11:52;;;;;;;2.93;1.40;;;;;;;4.53;88.67;100556.81;5016489;28;20204;-70
2023/11/09 00:14:18;;;;;;;3.03;1.40;;;;;;;4.51;88.82;100558.16;5013020;28;20200;-70
2023/11/09 00:16:46;;;;;;;2.80;1.50;;;;;;;4.49;89.18;100557.63;5016791;28;20235;-70
2023/11/09 00:19:13;;;;;;;2.90;1.50;;;;;;;4.47;88.83;100559.78;5014491;28;20219;-71
2023/11/09 00:21:40;;;;;;;2.00;1.53;;;;;;;4.45;88.59;100554.81;5012908;28;20222;-71
2023/11/09 00:24:10;;;;;;;3.00;1.33;;;;;;;4.43;88.64;100556.94;5018740;28;20199;-70
2023/11/09 00:26:37;;;;;;;4.40;1.43;;;;;;;4.42;88.67;100560.63;5014094;28;20235;-71
2023/11/09 00:29:03;;;;;;;2.17;1.40;;;;;;;4.40;88.43;100554.13;5017293;28;20575;-71
2023/11/09 00:31:30;;;;;;;3.00;1.60;;;;;;;4.39;88.23;100553.34;5012383;28;20574;-71
2023/11/09 00:33:57;;;;;;;3.57;1.60;;;;;;;4.38;88.46;100554.41;5009575;28;20673;-71
2023/11/09 00:36:24;;;;;;;1.80;1.40;;;;;;;4.37;88.57;100554.69;5013556;28;20595;-71
2023/11/09 00:38:51;;;;;;;2.60;1.47;;;;;;;4.36;88.70;100547.91;5015621;28;20214;-71
2023/11/09 00:41:18;;;;;;;3.30;1.60;;;;;;;4.35;88.81;100554.22;5014142;28;20567;-71
2023/11/09 00:43:44;;;;;;;3.03;1.37;;;;;;;4.34;88.64;100550.81;5011279;28;20665;-71
2023/11/09 00:46:11;;;;;;;3.50;1.60;;;;;;;4.34;88.76;100553.44;5015140;28;20224;-71
2023/11/09 00:48:38;;;;;;;2.33;1.60;;;;;;;4.34;88.87;100553.44;5012013;28;20207;-69
2023/11/09 00:51:05;;;;;;;2.53;1.60;;;;;;;4.35;88.57;100552.34;5015673;28;20196;-71
2023/11/09 00:53:32;;;;;;;3.67;1.70;;;;;;;4.34;88.95;100553.44;5016380;28;20226;-70
2023/11/09 00:55:58;;;;;;;5.00;1.70;;;;;;;4.35;88.69;100547.13;5011620;28;20224;-70
2023/11/09 00:58:25;;;;;;;4.70;1.70;;;;;;;4.36;88.88;100540.84;5007405;28;20232;-70
2023/11/09 01:00:51;;;;;;;4.90;1.80;;;;;;;4.38;89.13;100553.63;5014872;28;20669;-70
2023/11/09 01:03:17;;;;;;;3.33;1.83;;;;;;;4.40;88.84;100541.06;5014205;28;20275;-70
2023/11/09 01:05:45;;;;;;;3.87;1.63;;;;;;;4.39;88.92;100542.88;5012745;28;20226;-70
2023/11/09 01:08:13;;;;;;;1.43;1.33;;;;;;;4.41;88.71;100540.75;5014445;28;20226;-71
2023/11/09 01:10:39;;;;;;;5.10;1.50;;;;;;;4.45;88.72;100546.22;5012653;28;20211;-70
2023/11/09 01:13:06;;;;;;;3.63;2.00;;;;;;;4.44;88.50;100540.19;5021441;28;20637;-70
2023/11/09 01:15:33;;;;;;;3.30;1.80;;;;;;;4.46;88.26;100535.44;5010233;28;20392;-70
2023/11/09 01:18:03;;;;;;;2.37;1.73;;;;;;;4.49;88.68;100526.25;5008302;28;20205;-69
2023/11/09 01:20:31;;;;;;;6.47;1.63;;;;;;;4.50;88.58;100527.84;5010592;28;20212;-69
2023/11/09 01:22:58;;;;;;;3.10;1.60;;;;;;;4.51;88.50;100519.69;5013086;28;20188;-70
2023/11/09 01:25:26;;;;;;;2.00;1.80;;;;;;;4.53;88.51;100519.41;5015945;28;20539;-69
2023/11/09 01:27:52;;;;;;;3.13;1.73;;;;;;;4.54;88.49;100521.75;5016992;28;20204;-69
2023/11/09 01:30:19;;;;;;;2.47;1.80;;;;;;;4.55;88.51;100517.25;5015891;28;20223;-70
2023/11/09 01:32:46;;;;;;;2.33;1.53;;;;;;;4.55;88.60;100515.44;5011756;28;20305;-70
2023/11/09 01:35:13;;;;;;;4.77;2.03;;;;;;;4.58;88.70;100517.50;5011645;28;20228;-68
2023/11/09 01:37:40;;;;;;;5.20;1.67;;;;;;;4.58;88.48;100512.25;5017745;28;20724;-70
2023/11/09 01:40:09;;;;;;;2.03;1.53;;;;;;;4.59;88.47;100502.56;5020183;28;20287;-70
2023/11/09 01:42:37;;;;;;;3.30;1.77;;;;;;;4.61;88.72;100500.47;4999370;28;20204;-70
2023/11/09 01:45:05;;;;;;;1.83;1.60;;;;;;;4.62;89.10;100496.78;5014084;28;20239;-70
2023/11/09 01:47:30;;;;;;;2.93;2.00;;;;;;;4.63;88.41;100498.31;5019290;28;21225;-69
2023/11/09 01:49:57;;;;;;;2.50;1.73;;;;;;;4.65;88.35;100496.19;5001337;28;20210;-69
2023/11/09 01:52:23;;;;;;;2.57;2.10;;;;;;;4.67;88.42;100489.59;5017620;28;20222;-70
2023/11/09 01:54:50;;;;;;;3.60;2.10;;;;;;;4.70;88.28;100493.47;5016733;28;20222;-70
2023/11/09 01:57:19;;;;;;;2.33;1.77;;;;;;;4.72;88.26;100486.13;5016132;28;20689;-70
2023/11/09 01:59:50;;;;;;;3.20;1.97;;;;;;;4.74;88.47;100482.16;5016502;28;20658;-70
2023/11/09 02:02:18;;;;;;;2.80;2.07;;;;;;;4.78;88.43;100482.38;5018630;28;20585;-68
2023/11/09 02:04:45;;;;;;;4.23;2.23;;;;;;;4.80;88.25;100469.75;5020122;28;20206;-70
2023/11/09 02:07:12;;;;;;;4.27;1.77;;;;;;;4.83;88.39;100471.81;4997942;28;20201;-69
2023/11/09 02:09:38;;;;;;;4.90;2.00;;;;;;;4.86;88.10;100468.59;5019758;28;20214;-70
2023/11/09 02:12:07;;;;;;;4.13;1.80;;;;;;;4.89;87.95;100468.81;5015745;28;20638;-70
2023/11/09 02:14:34;;;;;;;4.30;1.80;;;;;;;4.92;88.01;100470.06;5018002;28;20225;-68
2023/11/09 02:17:04;;;;;;;6.60;1.93;;;;;;;4.96;88.31;100465.78;5017520;28;20215;-70
2023/11/09 02:19:31;;;;;;;6.20;1.57;;;;;;;5.00;88.17;100461.53;5016629;28;20686;-70
2023/11/09 02:21:57;;;;;;;2.37;1.73;;;;;;;5.03;87.99;100453.88;5012336;28;20211;-69
2023/11/09 02:24:26;;;;;;;3.83;1.83;;;;;;;5.07;87.46;100448.84;5014361;28;20575;-70
2023/11/09 02:26:54;;;;;;;3.07;1.70;;;;;;;5.11;87.79;100447.97;5018264;28;20582;-69
2023/11/09 02:29:21;;;;;;;2.90;1.70;;;;;;;5.17;87.49;100446.81;5017545;28;20213;-69
2023/11/09 02:31:47;;;;;;;3.00;1.70;;;;;;;5.21;87.57;100447.78;5013330;28;20679;-70
2023/11/09 02:34:19;;;;;;;5.80;2.00;;;;;;;5.27;87.06;100432.72;5017130;28;20499;-69
2023/11/09 02:36:45;;;;;;;2.93;1.40;;;;;;;5.33;87.65;100436.81;5015875;28;20260;-70
2023/11/09 02:39:12;;;;;;;5.60;1.83;;;;;;;5.36;87.47;100431.75;5015959;28;20215;-69
2023/11/09 02:41:40;;;;;;;2.20;1.60;;;;;;;5.41;86.96;100425.63;5018109;28;20292;-69
2023/11/09 02:44:07;;;;;;;2.23;2.03;;;;;;;5.44;87.09;100417.94;4998729;28;20223;-69
2023/11/09 02:46:34;;;;;;;2.27;1.77;;;;;;;5.48;86.42;100418.91;5014429;28;20247;-70
2023/11/09 02:49:00;;;;;;;4.93;2.00;;;;;;;5.52;86.79;100409.41;5015614;28;20203;-70
2023/11/09 02:51:26;;;;;;;3.73;1.70;;;;;;;5.55;86.05;100411.41;5012570;28;20215;-70
2023/11/09 02:53:54;;;;;;;3.13;1.80;;;;;;;5.57;86.49;100411.91;5019552;28;20678;-70
2023/11/09 02:56:21;;;;;;;3.53;1.70;;;;;;;5.59;86.35;100406.38;4995685;28;20222;-69
2023/11/09 02:58:48;;;;;;;2.70;1.87;;;;;;;5.61;85.71;100406.84;5016162;28;20209;-71
2023/11/09 03:01:15;;;;;;;2.70;2.23;;;;;;;5.61;86.21;100399.78;5015928;28;20215;-70
2023/11/09 03:03:42;;;;;;;4.03;2.07;;;;;;;5.62;85.54;100397.91;5015395;28;20212;-70
2023/11/09 03:06:08;;;;;;;4.97;1.80;;;;;;;5.59;85.65;100378.34;5016884;28;20224;-69
2023/11/09 03:08:35;;;;;;;3.40;1.90;;;;;;;5.58;85.41;100382.03;4996294;28;20249;-69
2023/11/09 03:11:01;;;;;;;3.67;1.70;;;;;;;5.57;85.46;100387.56;5017177;28;20211;-70
2023/11/09 03:13:27;;;;;;;4.43;1.80;;;;;;;5.55;85.61;100387.84;5013754;28;20360;-70
2023/11/09 03:15:55;;;;;;;2.20;1.40;;;;;;;5.53;85.54;100387.38;5014801;28;20247;-70
2023/11/09 03:18:21;;;;;;;3.17;1.90;;;;;;;5.51;85.87;100380.88;5017215;28;20208;-70
2023/11/09 03:20:49;;;;;;;2.60;1.60;;;;;;;5.49;85.67;100378.56;5014541;28;20196;-70
2023/11/09 03:23:16;;;;;;;4.07;1.90;;;;;;;5.50;86.21;100381.97;5018538;28;20550;-70
2023/11/09 03:25:42;;;;;;;1.90;1.63;;;;;;;5.51;86.04;100365.97;5013377;28;20235;-70
2023/11/09 03:28:08;;;;;;;6.20;2.03;;;;;;;5.53;85.85;100370.88;5016186;28;20213;-70
2023/11/09 03:30:36;;;;;;;2.53;1.57;;;;;;;5.55;86.38;100368.75;5015983;28;20897;-68
2023/11/09 03:33:03;;;;;;;3.20;1.90;;;;;;;5.58;85.65;100368.94;5016665;28;20231;-70
2023/11/09 03:35:31;;;;;;;1.93;1.53;;;;;;;5.65;86.34;100365.91;5017931;28;20236;-69
2023/11/09 03:37:57;;;;;;;3.13;1.60;;;;;;;5.67;86.42;100361.91;5015805;28;20207;-70
2023/11/09 03:40:23;;;;;;;2.80;1.67;;;;;;;5.73;86.29;100362.56;5014682;28;20231;-68
2023/11/09 03:42:50;;;;;;;2.67;1.70;;;;;;;5.78;86.06;100352.75;5014525;28;20200;-69
2023/11/09 03:45:16;;;;;;;2.73;1.77;;;;;;;5.83;85.66;100357.88;5015141;28;20215;-70
2023/11/09 03:47:44;;;;;;;3.83;1.90;;;;;;;5.89;86.26;100356.69;5012815;28;20484;-70
2023/11/09 03:50:12;;;;;;;4.00;1.70;;;;;;;5.94;86.23;100353.16;5017629;28;20207;-69
2023/11/09 03:52:39;;;;;;;3.87;1.70;;;;;;;6.00;85.70;100352.75;5011097;28;20200;-68
2023/11/09 03:55:07;;;;;;;4.00;2.07;;;;;;;6.06;85.75;100353.41;5013368;28;20695;-70
2023/11/09 03:57:35;;;;;;;4.40;1.97;;;;;;;6.12;84.97;100341.72;5016267;28;20254;-70
2023/11/09 04:00:03;;;;;;;3.03;1.83;;;;;;;6.18;85.10;100345.75;5016486;28;20219;-70
2023/11/09 04:02:40;;;;;;;6.90;1.63;;;;;;;6.22;85.18;100347.44;5015596;28;20203;-70
2023/11/09 04:05:09;;;;;;;3.63;2.03;;;;;;;6.28;84.87;100345.47;5012503;28;20239;-69
2023/11/09 04:07:37;;;;;;;4.17;2.17;;;;;;;6.32;85.06;100338.56;5012145;28;20299;-69
2023/11/09 04:10:06;;;;;;;5.50;1.97;;;;;;;6.36;84.50;100340.28;5015396;28;20574;-70
2023/11/09 04:12:32;;;;;;;3.17;1.83;;;;;;;6.41;85.51;100334.88;5013437;28;20215;-70
2023/11/09 04:14:59;;;;;;;9.07;2.43;;;;;;;6.44;84.63;100330.88;5010264;28;20220;-70
2023/11/09 04:17:26;;;;;;;2.33;1.83;;;;;;;6.46;84.13;100320.84;5013451;28;20695;-71
2023/11/09 04:19:52;;;;;;;4.70;2.10;;;;;;;6.50;83.55;100324.44;5015180;28;20291;-68
2023/11/09 04:22:18;;;;;;;4.63;1.97;;;;;;;6.52;84.71;100312.56;5012666;28;20624;-70
2023/11/09 04:24:46;;;;;;;3.57;2.10;;;;;;;6.54;83.70;100318.28;5014638;28;20629;-70
2023/11/09 04:27:12;;;;;;;3.50;1.83;;;;;;;6.57;83.70;100314.28;5013303;28;20213;-70
2023/11/09 04:29:39;;;;;;;9.37;2.10;;;;;;;6.60;84.31;100316.28;5012209;28;20200;-68
2023/11/09 04:32:08;;;;;;;4.03;2.20;;;;;;;6.64;83.59;100311.97;5014817;28;20215;-71
2023/11/09 04:34:35;;;;;;;2.40;1.60;;;;;;;6.65;83.17;100303.81;5015843;28;20274;-69
2023/11/09 04:37:02;;;;;;;3.40;1.93;;;;;;;6.69;83.12;100301.34;5009286;28;20203;-70
2023/11/09 04:39:29;;;;;;;3.20;1.97;;;;;;;6.72;82.96;100292.84;5011146;28;20637;-70
2023/11/09 04:41:57;;;;;;;3.00;1.90;;;;;;;6.75;83.08;100290.41;5013340;28;20218;-70
2023/11/09 04:44:24;;;;;;;4.27;2.23;;;;;;;6.79;82.73;100290.56;5015029;28;20570;-70
2023/11/09 04:46:52;;;;;;;3.37;2.30;;;;;;;6.82;82.52;100290.72;5013141;28;20677;-70
2023/11/09 04:49:20;;;;;;;2.80;1.90;;;;;;;6.84;81.96;100279.91;5011759;28;20212;-69
2023/11/09 04:51:49;;;;;;;2.83;2.20;;;;;;;6.87;83.17;100277.44;5013188;28;20610;-70
2023/11/09 04:54:19;;;;;;;4.53;2.30;;;;;;;6.92;82.03;100285.16;5013019;28;20593;-68
2023/11/09 04:57:03;;;;;;;2.73;2.07;;;;;;;6.94;82.14;100276.97;5010679;28;20945;-70
2023/11/09 05:07:43;;;;;;;3.40;2.57;;;;;;;7.02;83.17;100276.19;5015623;28;20291;-69
2023/11/09 05:10:09;;;;;;;3.60;2.23;;;;;;;7.02;81.12;100260.44;5019835;28;20211;-68
2023/11/09 05:12:35;;;;;;;5.23;2.50;;;;;;;7.02;80.93;100249.94;5021125;28;20230;-69
2023/11/09 05:15:04;;;;;;;2.83;1.97;;;;;;;7.01;82.04;100259.69;5023913;28;20224;-69
2023/11/09 05:17:31;;;;;;;4.27;2.33;;;;;;;7.00;81.26;100255.50;5017520;28;20300;-69
2023/11/09 05:19:58;;;;;;;3.20;2.33;;;;;;;6.98;81.27;100262.13;5014963;28;20219;-70
2023/11/09 05:22:26;;;;;;;3.10;2.30;;;;;;;6.96;80.86;100254.59;5017251;28;20231;-70
2023/11/09 05:24:52;;;;;;;6.23;2.43;;;;;;;6.94;80.19;100241.00;5017191;28;20267;-70
2023/11/09 05:27:19;;;;;;;3.43;2.33;;;;;;;6.91;80.00;100233.75;5023494;28;20207;-70
2023/11/09 05:29:46;;;;;;;2.70;2.00;;;;;;;6.91;81.21;100235.59;5023613;28;20265;-69
2023/11/09 05:32:14;;;;;;;3.77;2.50;;;;;;;6.88;81.14;100244.09;5020872;28;20235;-70
2023/11/09 05:34:40;;;;;;;6.00;2.47;;;;;;;6.87;81.17;100234.66;5022628;28;20243;-69
2023/11/09 05:37:07;;;;;;;5.20;2.50;;;;;;;6.86;80.79;100236.53;5023232;28;20202;-71
2023/11/09 05:39:34;;;;;;;3.97;2.40;;;;;;;6.85;81.69;100227.13;5021575;28;20713;-71
2023/11/09 05:42:00;;;;;;;5.07;2.57;;;;;;;6.85;80.54;100236.84;5021445;28;20210;-70
2023/11/09 05:44:27;;;;;;;6.43;2.80;;;;;;;6.84;80.03;100232.66;5022614;28;20208;-71
2023/11/09 05:46:54;;;;;;;5.00;2.17;;;;;;;6.85;81.35;100234.22;5019345;28;20231;-70
2023/11/09 05:49:22;;;;;;;6.27;3.17;;;;;;;6.83;80.39;100229.25;5018669;28;20677;-71
2023/11/09 05:51:50;;;;;;;3.33;2.30;;;;;;;6.83;80.55;100229.25;5016764;28;20208;-71
2023/11/09 05:54:17;;;;;;;3.60;2.63;;;;;;;6.82;80.39;100219.06;5013631;28;20298;-71
2023/11/09 05:56:44;;;;;;;5.13;2.70;;;;;;;6.83;80.21;100231.13;5015187;28;20222;-71
2023/11/09 05:59:10;;;;;;;4.73;2.70;;;;;;;6.82;80.46;100216.44;5023306;28;20234;-71
2023/11/09 06:01:37;;;;;;;5.70;2.73;;;;;;;6.81;80.60;100215.69;5018537;28;20640;-70
2023/11/09 06:04:04;;;;;;;4.37;2.53;;;;;;;6.80;80.60;100213.38;5015765;28;20307;-71
2023/11/09 06:06:32;;;;;;;5.90;2.60;;;;;;;6.80;81.55;100206.28;5015393;28;20236;-70
2023/11/09 06:08:58;;;;;;;3.53;2.33;;;;;;;6.81;80.22;100204.41;5016400;28;20204;-72
2023/11/09 06:11:29;;;;;;;4.23;2.20;;;;;;;6.81;80.45;100212.28;5016228;28;20382;-70
2023/11/09 06:13:55;;;;;;;3.50;2.50;;;;;;;6.82;80.25;100213.81;5022058;28;20208;-71
2023/11/09 06:16:22;;;;;;;3.73;2.67;;;;;;;6.81;80.74;100222.78;5021721;28;20231;-71
2023/11/09 06:18:49;;;;;;;3.47;2.40;;;;;;;6.81;80.08;100226.19;5021050;28;20211;-71
2023/11/09 06:21:15;;;;;;;3.27;2.40;;;;;;;6.81;79.69;100234.06;5024343;28;20269;-70
2023/11/09 06:23:43;;;;;;;3.13;2.37;;;;;;;6.81;79.91;100226.19;5020877;28;20505;-71
2023/11/09 06:26:09;;;;;;;2.63;2.20;;;;;;;6.82;81.08;100226.94;5018264;28;20455;-70
2023/11/09 06:28:36;;;;;;;3.57;2.23;;;;;;;6.81;81.07;100215.69;5020863;28;20219;-70
2023/11/09 06:31:04;;;;;;;5.40;2.60;;;;;;;6.83;80.31;100225.88;5019149;28;20208;-72
2023/11/09 06:33:30;;;;;;;2.80;2.37;;;;;;;6.83;79.94;100213.53;5017970;28;20231;-71
2023/11/09 06:35:58;;;;;;;3.63;2.40;;;;;;;6.84;79.98;100212.44;5020655;28;20223;-71
2023/11/09 06:38:25;;;;;;;2.87;2.20;;;;;;;6.85;80.39;100207.97;5021928;28;20605;-72
2023/11/09 06:40:53;;;;;;;3.00;2.20;;;;;;;6.86;80.36;100209.50;5023953;28;20208;-70
2023/11/09 06:43:20;;;;;;;4.07;2.10;;;;;;;6.85;80.19;100208.75;5022134;28;20215;-71
2023/11/09 06:45:46;;;;;;;5.77;2.63;;;;;;;6.86;80.39;100201.63;5022326;28;20224;-71
2023/11/09 06:48:13;;;;;;;4.83;2.27;;;;;;;6.87;79.88;100203.16;5022130;28;20219;-70
2023/11/09 06:50:39;;;;;;;5.80;3.27;;;;;;;6.87;80.74;100203.16;5020917;28;20702;-70
2023/11/09 06:53:05;;;;;;;19.23;10.07;;;;;;;6.88;80.28;100199.50;5024089;28;20219;-70
2023/11/09 06:55:32;;;;;;;6.10;4.27;;;;;;;6.90;79.27;100192.84;5021924;28;20239;-70
2023/11/09 06:58:00;;;;;;;7.17;4.97;;;;;;;6.92;79.22;100189.88;5022286;28;20210;-71
2023/11/09 07:00:26;;;;;;;5.47;4.80;;;;;;;6.93;78.97;100186.97;5019758;28;20277;-69
2023/11/09 07:02:53;;;;;;;4.13;3.03;;;;;;;6.95;79.29;100192.66;5016915;28;20593;-70
2023/11/09 07:05:22;;;;;;;5.00;4.43;;;;;;;6.97;81.10;100185.25;5000087;28;20231;-69
2023/11/09 07:07:49;;;;;;;4.03;2.97;;;;;;;6.99;79.25;100182.34;5020072;28;20665;-70
2023/11/09 07:10:16;;;;;;;5.23;3.33;;;;;;;7.01;79.15;100191.44;5022469;28;20555;-71
2023/11/09 07:12:42;;;;;;;8.23;3.90;;;;;;;7.04;80.59;100179.56;5022877;28;21101;-69
2023/11/09 07:15:10;;;;;;;4.80;3.80;;;;;;;7.04;80.30;100182.94;5021920;28;20215;-71
2023/11/09 07:17:37;;;;;;;4.83;2.77;;;;;;;7.09;79.78;100177.53;5022549;28;20211;-71
2023/11/09 07:20:05;;;;;;;6.80;4.07;;;;;;;7.13;78.62;100183.69;5021128;28;20208;-71
2023/11/09 07:22:33;;;;;;;4.57;3.00;;;;;;;7.19;78.11;100181.69;5022255;28;20214;-70
2023/11/09 07:25:00;;;;;;;7.07;2.87;;;;;;;7.25;79.19;100181.19;5021873;28;20227;-71
2023/11/09 07:27:26;;;;;;;7.10;2.83;;;;;;;7.34;78.36;100173.28;5022673;28;20232;-70
2023/11/09 07:29:53;;;;;;;5.17;2.63;;;;;;;7.41;77.70;100173.59;5023008;28;20216;-70
2023/11/09 07:32:20;;;;;;;5.33;3.40;;;;;;;7.47;77.75;100175.75;5020999;28;20219;-71
2023/11/09 07:34:48;;;;;;;3.50;2.30;;;;;;;7.58;77.74;100176.16;5023465;28;20220;-70
2023/11/09 07:37:15;;;;;;;3.27;2.33;;;;;;;7.66;76.61;100185.88;5021801;28;20798;-71
2023/11/09 07:39:43;;;;;;;4.93;2.60;;;;;;;7.72;76.82;100176.72;5022088;28;20211;-71
2023/11/09 07:42:10;;;;;;;2.07;1.87;;;;;;;7.81;75.83;100182.72;5022658;28;20210;-70
2023/11/09 07:44:36;;;;;;;3.53;2.03;;;;;;;7.87;76.12;100174.31;5021803;28;20223;-71
2023/11/09 07:47:03;;;;;;;4.33;2.10;;;;;;;7.94;75.65;100172.00;5022846;28;20318;-71
2023/11/09 07:49:31;;;;;;;4.07;2.03;;;;;;;8.01;75.99;100169.63;5020472;28;20210;-71
2023/11/09 07:51:58;;;;;;;3.33;2.23;;;;;;;8.07;75.53;100168.34;5022177;28;20283;-71
2023/11/09 07:54:25;;;;;;;2.80;2.00;;;;;;;8.13;76.00;100164.44;5022467;28;20258;-70
2023/11/09 07:56:51;;;;;;;4.47;2.17;;;;;;;8.22;74.61;100156.53;5021534;28;20256;-70
2023/11/09 07:59:17;;;;;;;3.07;2.03;;;;;;;8.27;76.01;100156.34;5024253;28;20555;-71
2023/11/09 08:01:44;;;;;;;2.73;2.13;;;;;;;8.34;74.76;100156.63;5022513;28;20217;-71
2023/11/09 08:04:12;;;;;;;2.97;1.83;;;;;;;8.39;74.90;100149.28;5024322;28;20193;-70
2023/11/09 08:06:39;;;;;;;4.83;2.00;;;;;;;8.46;74.16;100144.31;5024364;28;20595;-71
2023/11/09 08:09:09;;;;;;;3.70;1.80;;;;;;;8.54;75.86;100145.31;5023854;28;20235;-71
2023/11/09 08:11:35;;;;;;;1.83;1.37;;;;;;;8.62;73.07;100149.75;5023421;28;20241;-70
2023/11/09 08:14:02;;;;;;;3.20;1.70;;;;;;;8.69;74.47;100145.50;5024732;28;20216;-69
2023/11/09 08:16:30;;;;;;;2.30;1.73;;;;;;;8.76;71.86;100140.47;5022783;28;20647;-71
2023/11/09 08:18:57;;;;;;;4.17;2.00;;;;;;;8.84;72.59;100139.63;5022992;28;20218;-71
2023/11/09 08:21:25;;;;;;;1.43;1.30;;;;;;;8.92;73.75;100136.16;5024381;28;20603;-71
2023/11/09 08:23:52;;;;;;;4.50;2.13;;;;;;;9.00;71.20;100145.81;5026469;28;20253;-71
2023/11/09 08:26:19;;;;;;;1.50;1.40;;;;;;;9.08;69.60;100141.56;5021688;28;20759;-71
2023/11/09 08:28:45;;;;;;;2.27;1.70;;;;;;;9.13;69.37;100142.16;5022737;28;20581;-71
2023/11/09 08:31:13;;;;;;;2.87;1.80;;;;;;;9.20;71.04;100136.31;5022064;28;20214;-71
2023/11/09 08:33:40;;;;;;;2.43;1.40;;;;;;;9.24;69.63;100140.63;5024528;28;20203;-69
2023/11/09 08:36:10;;;;;;;4.37;1.80;;;;;;;9.28;69.37;100138.09;5022831;28;20607;-70
2023/11/09 08:38:36;;;;;;;2.00;1.80;;;;;;;9.33;69.73;100135.25;5022309;28;20689;-70
2023/11/09 08:41:06;;;;;;;3.97;1.80;;;;;;;9.37;72.48;100147.44;5003100;28;20727;-71
2023/11/09 08:43:33;;;;;;;2.93;1.80;;;;;;;9.41;68.31;100137.00;5026912;28;20206;-70
2023/11/09 08:46:02;;;;;;;3.37;1.73;;;;;;;9.44;67.87;100139.00;5027672;28;20250;-69
2023/11/09 08:48:28;;;;;;;4.20;2.10;;;;;;;9.49;68.56;100141.44;5025707;28;20257;-70
2023/11/09 08:50:56;;;;;;;4.47;1.70;;;;;;;9.53;67.81;100144.94;5030718;28;20199;-70
2023/11/09 08:53:22;;;;;;;3.47;1.80;;;;;;;9.56;68.66;100145.06;5025714;28;20265;-69
2023/11/09 08:55:48;;;;;;;3.30;1.97;;;;;;;9.60;68.32;100137.25;5025801;28;20240;-71
2023/11/09 08:58:16;;;;;;;2.93;1.80;;;;;;;9.64;69.43;100146.06;5025558;28;20200;-71
2023/11/09 09:00:42;;;;;;;2.13;1.50;;;;;;;9.69;67.23;100140.56;5030872;28;20207;-70
2023/11/09 09:03:09;;;;;;;4.43;1.80;;;;;;;9.74;66.94;100129.81;5031064;28;20689;-70
2023/11/09 09:05:37;;;;;;;1.60;1.47;;;;;;;9.80;66.55;100123.97;5025634;28;20219;-70
2023/11/09 09:08:03;;;;;;;3.23;1.47;;;;;;;9.87;66.42;100120.78;5027657;28;20207;-71
2023/11/09 09:10:30;;;;;;;3.20;1.40;;;;;;;9.93;67.43;100119.47;5026788;28;20290;-71
2023/11/09 09:12:56;;;;;;;2.77;1.60;;;;;;;9.99;66.17;100118.88;5033119;28;20220;-70
2023/11/09 09:15:27;;;;;;;1.80;1.70;;;;;;;10.08;67.08;100124.06;5027831;28;20306;-70
2023/11/09 09:17:55;;;;;;;2.87;1.97;;;;;;;10.16;66.29;100118.69;5025110;28;20200;-71
2023/11/09 09:20:23;;;;;;;3.53;1.97;;;;;;;10.27;69.23;100105.78;5025232;28;20701;-70
2023/11/09 09:22:52;;;;;;;4.37;1.60;;;;;;;10.39;66.29;100111.03;5029622;28;20195;-71
2023/11/09 09:25:22;;;;;;;2.10;1.50;;;;;;;10.52;64.42;100101.97;5026287;28;20231;-70
2023/11/09 09:27:50;;;;;;;4.17;2.00;;;;;;;10.59;64.19;100112.72;5029154;28;20646;-69
2023/11/09 09:30:18;;;;;;;1.93;1.50;;;;;;;10.67;65.92;100112.56;5025405;28;20244;-70
2023/11/09 09:32:47;;;;;;;2.97;2.00;;;;;;;10.73;66.15;100110.47;5027308;28;20573;-71
2023/11/09 09:35:14;;;;;;;2.43;1.90;;;;;;;10.80;66.15;100121.19;5022199;28;20254;-71
2023/11/09 09:37:45;;;;;;;2.43;1.70;;;;;;;10.86;62.30;100112.72;5027416;28;20200;-70
2023/11/09 09:40:15;;;;;;;1.57;1.43;;;;;;;10.90;63.75;100116.22;5023752;28;20210;-71
2023/11/09 09:42:44;;;;;;;2.50;1.50;;;;;;;10.93;63.23;100101.56;5024358;28;20238;-71
2023/11/09 09:45:13;;;;;;;4.93;1.73;;;;;;;10.96;65.87;100103.50;5025459;28;20234;-71
2023/11/09 09:47:43;;;;;;;2.03;1.80;;;;;;;10.98;63.20;100111.88;5024799;28;20201;-70
2023/11/09 09:50:14;;;;;;;2.50;1.70;;;;;;;10.98;64.30;100106.59;5025870;28;20568;-69
2023/11/09 09:52:43;;;;;;;2.83;1.80;;;;;;;10.99;61.33;100108.91;5018739;28;20683;-71
2023/11/09 09:55:10;;;;;;;5.27;2.00;;;;;;;11.01;61.69;100100.63;5024993;28;20308;-71
2023/11/09 09:57:37;;;;;;;3.03;1.70;;;;;;;11.04;62.92;100106.00;5025426;28;20220;-71
2023/11/09 10:00:06;;;;;;;2.40;2.00;;;;;;;11.07;61.90;100104.56;5022669;28;21104;-69
2023/11/09 10:02:39;;;;;;;2.60;2.10;;;;;;;11.13;62.60;100103.97;5025038;28;20282;-71
2023/11/09 10:05:11;;;;;;;4.07;2.50;;;;;;;11.18;63.08;100105.59;5023213;28;20227;-70
2023/11/09 10:07:56;;;;;;;2.37;1.90;;;;;;;11.26;63.38;100113.34;5023539;28;20213;-71
2023/11/09 10:10:23;;;;;;;2.73;2.00;;;;;;;11.32;62.67;100100.63;5021107;28;20209;-71
2023/11/09 10:12:49;;;;;;;4.27;1.90;;;;;;;11.38;61.49;100100.06;5025513;28;20208;-71
2023/11/09 10:15:16;;;;;;;3.03;2.20;;;;;;;11.43;63.45;100094.50;5019226;28;20227;-71
2023/11/09 10:17:43;;;;;;;2.33;1.80;;;;;;;11.49;60.31;100095.03;5023077;28;20625;-71
2023/11/09 10:20:13;;;;;;;2.63;1.60;;;;;;;11.52;62.01;100097.75;5024576;28;20203;-71
2023/11/09 10:22:41;;;;;;;2.73;1.70;;;;;;;11.58;62.03;100098.25;5021842;28;20228;-71
2023/11/09 10:25:11;;;;;;;1.60;1.30;;;;;;;11.66;58.13;100094.69;5024018;28;20241;-69
2023/11/09 10:27:37;;;;;;;2.47;1.47;;;;;;;11.71;59.76;100099.72;5022835;28;20210;-71
2023/11/09 10:30:06;;;;;;;7.10;1.93;;;;;;;11.79;60.84;100091.59;5024306;28;20290;-70
2023/11/09 10:32:35;;;;;;;2.80;1.40;;;;;;;11.88;59.06;100094.03;5022593;28;20555;-70
2023/11/09 10:35:02;;;;;;;5.20;1.77;;;;;;;11.96;58.71;100096.50;5026409;28;20249;-70
2023/11/09 10:37:29;;;;;;;2.83;2.13;;;;;;;12.01;58.08;100087.53;5022833;28;20288;-71
2023/11/09 10:39:57;;;;;;;2.77;1.90;;;;;;;12.06;58.19;100097.84;5018985;28;20212;-71
2023/11/09 10:42:25;;;;;;;4.17;2.30;;;;;;;12.10;58.48;100088.09;5024415;28;20219;-71
2023/11/09 10:44:52;;;;;;;4.17;2.37;;;;;;;12.16;58.08;100084.81;5021667;28;20639;-71
2023/11/09 10:47:22;;;;;;;3.30;2.10;;;;;;;12.22;57.51;100080.78;5021776;28;20587;-71
2023/11/09 10:49:52;;;;;;;3.13;1.90;;;;;;;12.28;58.44;100074.13;5022212;28;20287;-70
2023/11/09 10:52:21;;;;;;;3.43;1.50;;;;;;;12.34;61.14;100079.88;5025619;28;20272;-71
2023/11/09 10:54:51;;;;;;;3.57;1.70;;;;;;;12.37;58.40;100079.94;5027854;28;20219;-70
2023/11/09 10:57:21;;;;;;;2.00;1.30;;;;;;;12.41;59.92;100075.50;5022865;28;20235;-70
2023/11/09 10:59:48;;;;;;;5.03;1.43;;;;;;;12.44;57.80;100076.69;5025881;28;20221;-71
2023/11/09 11:02:20;;;;;;;3.97;1.43;;;;;;;12.47;58.01;100071.44;5021360;28;20202;-71
2023/11/09 11:04:50;;;;;;;1.30;1.20;;;;;;;12.49;58.19;100082.47;5021638;28;20207;-71
2023/11/09 11:07:20;;;;;;;1.67;1.57;;;;;;;12.48;56.29;100078.28;5023337;28;20686;-70
2023/11/09 11:09:51;;;;;;;3.47;1.60;;;;;;;12.46;56.68;100064.63;5025335;28;20749;-71
2023/11/09 11:12:19;;;;;;;2.00;1.23;;;;;;;12.44;55.60;100068.75;5025932;28;20222;-71
2023/11/09 11:14:49;;;;;;;2.07;1.40;;;;;;;12.40;55.86;100067.91;5023471;28;20208;-70
2023/11/09 11:17:28;;;;;;;1.50;1.30;;;;;;;12.38;57.00;100056.91;5024699;28;20246;-69
2023/11/09 11:20:18;;;;;;;5.00;3.50;;;;;;;12.37;59.00;100065.97;5023355;28;20200;-71
2023/11/09 11:22:57;;;;;;;2.80;2.30;;;;;;;12.32;57.30;100061.69;5023772;28;20675;-70
2023/11/09 11:25:35;;;;;;;5.47;1.37;;;;;;;12.30;59.65;100063.16;5020553;28;20235;-70
2023/11/09 11:28:05;;;;;;;6.53;1.73;;;;;;;12.24;57.49;100059.25;5025088;28;20210;-70
2023/11/09 11:30:33;;;;;;;3.03;2.03;;;;;;;12.21;57.90;100073.22;5022486;28;20207;-70
2023/11/09 11:33:00;;;;;;;2.17;1.80;;;;;;;12.19;59.48;100073.56;5024786;28;20219;-69
2023/11/09 11:35:39;;;;;;;1.70;1.47;;;;;;;12.19;57.21;100065.63;5023842;28;20315;-72
2023/11/09 11:38:21;;;;;;;4.97;2.10;;;;;;;12.19;58.22;100067.47;5024073;28;20204;-70
2023/11/09 11:40:51;;;;;;;2.00;1.60;;;;;;;12.20;58.36;100061.84;5023330;28;20287;-72
2023/11/09 11:43:20;;;;;;;2.30;1.57;;;;;;;12.21;57.56;100057.31;5025712;28;20222;-71